Time;durP1;ratioP1;P1;durP2;ratioP2;P2;SDS_P1;SDS_P2;PMS_P1;PMS_P2;Temp;Humidity;BMP_temperature;BMP_pressure;BME280_temperature;BME280_humidity;BME280_pressure;Samples;Min_cycle;Max_cycle;Signal;HPM_P1;HPM_P2
2022/09/10 00:00:58;;;;;;;0.10;0.10;;;13.10;99.90;;;;;;4993743;28;20034;-77
2022/09/10 00:03:24;;;;;;;0.10;0.10;;;13.00;99.90;;;;;;4993586;28;20026;-77
2022/09/10 00:05:49;;;;;;;0.10;0.10;;;13.10;99.90;;;;;;4959980;28;20405;-77
2022/09/10 00:08:16;;;;;;;0.10;0.10;;;13.10;99.90;;;;;;4976291;28;20093;-77
2022/09/10 00:10:48;;;;;;;0.10;0.10;;;13.10;99.90;;;;;;4975994;28;20070;-76
2022/09/10 00:13:17;;;;;;;0.20;0.20;;;13.00;99.90;;;;;;4976084;28;20029;-77
2022/09/10 00:15:46;;;;;;;0.10;0.10;;;12.90;99.90;;;;;;4986718;28;20037;-77
2022/09/10 00:18:14;;;;;;;0.20;0.20;;;12.90;99.90;;;;;;4993366;28;20026;-76
2022/09/10 00:20:50;;;;;;;0.10;0.10;;;12.90;99.90;;;;;;4975944;28;20041;-77
2022/09/10 00:23:18;;;;;;;0.10;0.10;;;12.90;99.90;;;;;;4993250;28;20521;-76
2022/09/10 00:25:45;;;;;;;0.13;0.10;;;12.90;99.90;;;;;;4975548;28;20049;-77
2022/09/10 00:28:12;;;;;;;0.10;0.10;;;12.90;99.90;;;;;;4993188;28;20447;-77
2022/09/10 00:30:41;;;;;;;0.10;0.10;;;12.80;99.90;;;;;;4993093;28;20049;-76
2022/09/10 00:33:07;;;;;;;0.10;0.10;;;12.70;99.90;;;;;;4975721;28;20046;-76
2022/09/10 00:35:33;;;;;;;0.10;0.10;;;12.60;99.90;;;;;;4992907;28;20022;-76
2022/09/10 00:37:59;;;;;;;0.10;0.10;;;12.50;99.90;;;;;;4959499;28;20038;-77
2022/09/10 00:40:25;;;;;;;0.10;0.10;;;12.50;99.90;;;;;;4975798;28;20018;-76
2022/09/10 00:42:51;;;;;;;0.10;0.10;;;12.50;99.90;;;;;;4993030;28;20042;-77
2022/09/10 00:45:19;;;;;;;0.10;0.10;;;12.50;99.90;;;;;;4975497;28;20501;-76
2022/09/10 00:47:49;;;;;;;0.10;0.10;;;12.30;99.90;;;;;;4975500;28;20034;-76
2022/09/10 00:50:24;;;;;;;0.00;0.00;;;12.40;99.90;;;;;;4975391;28;20026;-77
2022/09/10 00:53:01;;;;;;;0.10;0.10;;;12.40;99.90;;;;;;4974644;28;20027;-77
2022/09/10 00:55:27;;;;;;;0.15;0.15;;;12.20;99.90;;;;;;4992605;28;20030;-77
2022/09/10 00:57:57;;;;;;;0.45;0.43;;;12.20;99.90;;;;;;4975353;28;20450;-76
2022/09/10 01:00:23;;;;;;;0.13;0.13;;;12.20;99.90;;;;;;4992798;28;20057;-76
2022/09/10 01:02:49;;;;;;;0.10;0.10;;;12.20;99.90;;;;;;4992646;28;20026;-77
2022/09/10 01:05:17;;;;;;;0.70;0.63;;;12.00;99.90;;;;;;4975143;28;20571;-77
2022/09/10 01:07:43;;;;;;;0.20;0.20;;;12.00;99.90;;;;;;4975100;28;20026;-77
2022/09/10 01:10:17;;;;;;;0.20;0.20;;;12.10;99.90;;;;;;4975177;28;20121;-76
2022/09/10 01:13:10;;;;;;;0.10;0.10;;;12.00;99.90;;;;;;4959033;28;20027;-77
2022/09/10 01:15:42;;;;;;;0.10;0.10;;;11.90;99.90;;;;;;4974917;28;20513;-75
2022/09/10 01:18:21;;;;;;;0.10;0.10;;;11.90;99.90;;;;;;4975211;28;20046;-75
2022/09/10 01:21:11;;;;;;;0.10;0.10;;;12.00;99.90;;;;;;4991396;28;20471;-75
2022/09/10 01:24:17;;;;;;;0.10;0.10;;;12.10;99.90;;;;;;4992473;28;20085;-76
2022/09/10 01:26:43;;;;;;;0.35;0.35;;;12.20;99.90;;;;;;4992303;28;20027;-76
2022/09/10 01:29:13;;;;;;;0.10;0.10;;;12.00;99.90;;;;;;4974984;28;20030;-78
2022/09/10 01:31:54;;;;;;;0.10;0.10;;;12.10;99.90;;;;;;4992444;28;20121;-77
2022/09/10 01:34:28;;;;;;;0.10;0.10;;;12.10;99.90;;;;;;4975055;28;20045;-76
2022/09/10 01:37:03;;;;;;;0.10;0.10;;;12.00;99.90;;;;;;4992185;28;20022;-76
2022/09/10 01:39:29;;;;;;;0.17;0.17;;;12.00;99.90;;;;;;4992415;28;20068;-76
2022/09/10 01:41:55;;;;;;;0.20;0.20;;;11.90;99.90;;;;;;4992275;28;20022;-77
2022/09/10 01:44:46;;;;;;;4.18;0.20;;;11.90;99.90;;;;;;4992396;28;20022;-76
2022/09/10 01:47:23;;;;;;;0.17;0.17;;;11.90;99.90;;;;;;4992184;28;20018;-76
2022/09/10 01:49:52;;;;;;;0.17;0.17;;;11.90;99.90;;;;;;4992342;28;20031;-76
2022/09/10 01:52:28;;;;;;;11.40;0.20;;;11.80;99.90;;;;;;4958575;28;20479;-76
2022/09/10 01:55:21;;;;;;;0.30;0.30;;;11.90;99.90;;;;;;4974766;28;20061;-76
2022/09/10 01:58:03;;;;;;;0.10;0.10;;;12.00;99.90;;;;;;4992250;28;20026;-76
2022/09/10 02:00:32;;;;;;;0.10;0.10;;;12.00;99.90;;;;;;4974788;28;20037;-77
2022/09/10 02:03:06;;;;;;;0.10;0.10;;;12.20;99.90;;;;;;4992167;28;20034;-77
2022/09/10 02:05:35;;;;;;;0.10;0.10;;;12.30;99.90;;;;;;4976862;28;20564;-76
2022/09/10 02:08:14;;;;;;;0.00;0.00;;;12.30;99.90;;;;;;4995794;28;20092;-75
2022/09/10 02:10:55;;;;;;;0.10;0.10;;;12.40;99.90;;;;;;4978288;28;20073;-77
2022/09/10 02:13:22;;;;;;;0.10;0.10;;;12.40;99.90;;;;;;4995713;28;20026;-75
2022/09/10 02:15:51;;;;;;;0.17;0.17;;;12.40;99.90;;;;;;4995518;28;20026;-76
2022/09/10 02:18:21;;;;;;;0.10;0.10;;;12.40;99.90;;;;;;4995705;28;20026;-76
2022/09/10 02:20:54;;;;;;;0.10;0.10;;;12.40;99.90;;;;;;4995585;28;20053;-76
2022/09/10 02:23:26;;;;;;;0.10;0.10;;;12.30;99.90;;;;;;4995541;28;20026;-76
2022/09/10 02:25:52;;;;;;;0.10;0.10;;;12.20;99.90;;;;;;4978009;28;20758;-75
2022/09/10 02:28:19;;;;;;;0.10;0.10;;;12.20;99.90;;;;;;4995570;28;20054;-76
2022/09/10 02:30:47;;;;;;;0.10;0.10;;;12.40;99.90;;;;;;4977854;28;20033;-76
2022/09/10 02:33:15;;;;;;;0.10;0.10;;;12.40;99.90;;;;;;4995270;28;20031;-76
2022/09/10 02:35:42;;;;;;;0.10;0.10;;;12.40;99.90;;;;;;4977723;28;20022;-76
2022/09/10 02:38:08;;;;;;;0.10;0.10;;;12.30;99.90;;;;;;4977669;28;20026;-76
2022/09/10 02:40:33;;;;;;;0.10;0.10;;;12.30;99.90;;;;;;4995310;28;20022;-76
2022/09/10 02:42:59;;;;;;;0.10;0.10;;;12.40;99.90;;;;;;4977781;28;20089;-76
2022/09/10 02:45:26;;;;;;;0.10;0.10;;;12.50;99.90;;;;;;4977696;28;20030;-76
2022/09/10 02:47:51;;;;;;;0.10;0.10;;;12.50;99.90;;;;;;4977588;28;20023;-76
2022/09/10 02:50:17;;;;;;;0.10;0.10;;;12.50;99.90;;;;;;4994996;28;20049;-76
2022/09/10 02:52:47;;;;;;;0.10;0.10;;;12.50;99.90;;;;;;4994965;28;20105;-76
2022/09/10 02:55:13;;;;;;;0.75;0.20;;;12.50;99.90;;;;;;4994598;28;20096;-77
2022/09/10 02:57:39;;;;;;;0.10;0.10;;;12.40;99.90;;;;;;4977692;28;20030;-77
2022/09/10 03:00:09;;;;;;;0.10;0.10;;;12.40;99.90;;;;;;4994867;28;20052;-77
2022/09/10 03:02:35;;;;;;;0.20;0.20;;;12.40;99.90;;;;;;4977216;28;20387;-77
2022/09/10 03:05:03;;;;;;;0.10;0.10;;;12.30;99.90;;;;;;4977213;28;20022;-77
2022/09/10 03:07:30;;;;;;;0.10;0.10;;;12.20;99.90;;;;;;4994932;28;20019;-76
2022/09/10 03:09:56;;;;;;;0.00;0.00;;;12.10;99.90;;;;;;4994664;28;20049;-76
2022/09/10 03:12:21;;;;;;;0.20;0.20;;;12.30;99.90;;;;;;4994576;28;20112;-76
2022/09/10 03:14:49;;;;;;;2.17;0.30;;;12.20;99.90;;;;;;4994614;28;20029;-76
2022/09/10 03:17:15;;;;;;;0.10;0.10;;;12.10;99.90;;;;;;4976277;28;20022;-76
2022/09/10 03:19:42;;;;;;;0.13;0.13;;;12.10;99.90;;;;;;4994556;28;20019;-77
2022/09/10 03:22:10;;;;;;;0.10;0.10;;;12.20;99.90;;;;;;4976923;28;20033;-76
2022/09/10 03:24:35;;;;;;;0.10;0.10;;;12.20;99.90;;;;;;4994527;28;20022;-76
2022/09/10 03:27:01;;;;;;;0.35;0.35;;;12.20;99.90;;;;;;4994214;28;20029;-76
2022/09/10 03:29:28;;;;;;;0.10;0.10;;;12.30;99.90;;;;;;4994404;28;20035;-78
2022/09/10 03:31:55;;;;;;;0.30;0.30;;;12.30;99.90;;;;;;4976791;28;20033;-76
2022/09/10 03:34:21;;;;;;;0.10;0.10;;;12.30;99.90;;;;;;4993027;28;20102;-76
2022/09/10 03:36:47;;;;;;;0.10;0.10;;;12.30;99.90;;;;;;4976622;28;20339;-76
2022/09/10 03:39:17;;;;;;;0.10;0.10;;;12.30;99.90;;;;;;4976725;28;20030;-76
2022/09/10 03:41:46;;;;;;;0.10;0.10;;;12.40;99.90;;;;;;4976776;28;20022;-76
2022/09/10 03:44:13;;;;;;;0.10;0.10;;;12.70;99.90;;;;;;4976633;28;20497;-76
2022/09/10 03:46:38;;;;;;;0.10;0.10;;;13.10;99.90;;;;;;4993935;28;20388;-76
2022/09/10 03:49:05;;;;;;;0.10;0.10;;;13.00;99.90;;;;;;4993831;28;20026;-76
2022/09/10 03:51:31;;;;;;;0.10;0.10;;;13.00;99.90;;;;;;4976394;28;20031;-76
2022/09/10 03:53:58;;;;;;;0.10;0.10;;;13.10;99.90;;;;;;4993823;28;20098;-76
2022/09/10 03:56:24;;;;;;;0.10;0.10;;;13.20;99.90;;;;;;4993560;28;20034;-77
2022/09/10 03:58:51;;;;;;;0.10;0.10;;;13.10;99.90;;;;;;4976427;28;20027;-76
2022/09/10 04:01:18;;;;;;;0.10;0.10;;;13.30;99.90;;;;;;4976252;28;20037;-76
2022/09/10 04:03:44;;;;;;;0.10;0.10;;;13.20;99.90;;;;;;4993646;28;20065;-76
2022/09/10 04:06:11;;;;;;;0.10;0.10;;;12.90;99.90;;;;;;4960165;28;20626;-77
2022/09/10 04:08:38;;;;;;;0.10;0.10;;;12.80;99.90;;;;;;4976362;28;20057;-76
2022/09/10 04:11:04;;;;;;;0.10;0.10;;;12.70;99.90;;;;;;4993547;28;20030;-76
2022/09/10 04:13:30;;;;;;;0.10;0.10;;;12.70;99.90;;;;;;4976039;28;20394;-76
2022/09/10 04:15:59;;;;;;;0.10;0.10;;;12.60;99.90;;;;;;4975915;28;20022;-76
2022/09/10 04:18:26;;;;;;;0.10;0.10;;;12.70;99.90;;;;;;4959931;28;20022;-76
2022/09/10 04:20:55;;;;;;;0.10;0.10;;;12.70;99.90;;;;;;4959838;28;20058;-76
2022/09/10 04:23:21;;;;;;;0.13;0.13;;;12.70;99.90;;;;;;4975978;28;20057;-77
2022/09/10 04:25:48;;;;;;;0.20;0.20;;;12.50;99.90;;;;;;4975670;28;20034;-77
2022/09/10 04:28:14;;;;;;;0.20;0.20;;;12.50;99.90;;;;;;4975771;28;20102;-76
2022/09/10 04:30:42;;;;;;;0.10;0.10;;;12.60;99.90;;;;;;4975817;28;20023;-77
2022/09/10 04:33:08;;;;;;;0.10;0.10;;;12.60;99.90;;;;;;4993110;28;20482;-76
2022/09/10 04:35:34;;;;;;;0.10;0.10;;;12.60;99.90;;;;;;4975598;28;20022;-76
2022/09/10 04:38:00;;;;;;;0.20;0.20;;;12.60;99.90;;;;;;4975627;28;20490;-76
2022/09/10 04:40:29;;;;;;;0.20;0.20;;;12.50;99.90;;;;;;4993103;28;20033;-76
2022/09/10 04:42:55;;;;;;;0.10;0.10;;;12.60;99.90;;;;;;4975461;28;20116;-76
2022/09/10 04:45:20;;;;;;;0.15;0.15;;;12.50;99.90;;;;;;4991513;28;20033;-76
2022/09/10 04:47:46;;;;;;;0.10;0.10;;;12.30;99.90;;;;;;4975286;28;20026;-76
2022/09/10 04:50:14;;;;;;;0.10;0.10;;;12.20;99.90;;;;;;4992864;28;20030;-76
2022/09/10 04:52:42;;;;;;;0.10;0.10;;;12.30;99.90;;;;;;4992884;28;20022;-76
2022/09/10 04:55:09;;;;;;;0.10;0.10;;;12.20;99.90;;;;;;4975032;28;20033;-76
2022/09/10 04:57:35;;;;;;;0.10;0.10;;;12.40;99.90;;;;;;4992811;28;20030;-76
2022/09/10 05:00:08;;;;;;;0.10;0.10;;;12.50;99.90;;;;;;4975509;28;20089;-76
2022/09/10 05:02:36;;;;;;;2.63;0.80;;;12.50;99.90;;;;;;4975221;28;20085;-76
2022/09/10 05:05:02;;;;;;;0.10;0.10;;;12.50;99.90;;;;;;4975166;28;20391;-76
2022/09/10 05:07:27;;;;;;;0.10;0.10;;;12.50;99.90;;;;;;4959195;28;20113;-76
2022/09/10 05:09:54;;;;;;;0.10;0.10;;;12.60;99.90;;;;;;4992684;28;20092;-77
2022/09/10 05:12:19;;;;;;;0.10;0.10;;;12.50;99.90;;;;;;4975198;28;20109;-76
2022/09/10 05:14:45;;;;;;;0.17;0.17;;;12.50;99.90;;;;;;4975638;28;20061;-77
2022/09/10 05:17:11;;;;;;;0.10;0.10;;;12.60;99.90;;;;;;4992465;28;20106;-76
2022/09/10 05:19:36;;;;;;;0.10;0.10;;;12.60;99.90;;;;;;4980920;28;20026;-76
2022/09/10 05:22:02;;;;;;;0.10;0.10;;;12.70;99.90;;;;;;4988593;28;20097;-76
2022/09/10 05:24:28;;;;;;;0.10;0.10;;;12.70;99.90;;;;;;4973166;28;20026;-76
2022/09/10 05:26:55;;;;;;;0.10;0.10;;;12.60;99.90;;;;;;4962887;28;20022;-76
2022/09/10 05:29:21;;;;;;;0.10;0.10;;;12.70;99.90;;;;;;4983434;28;20478;-76
2022/09/10 05:31:47;;;;;;;0.10;0.10;;;12.70;99.90;;;;;;4960781;28;20035;-76
2022/09/10 05:34:13;;;;;;;0.10;0.10;;;12.80;99.90;;;;;;4992473;28;20038;-76
2022/09/10 05:36:40;;;;;;;0.10;0.10;;;12.90;99.90;;;;;;4985157;28;20094;-76
2022/09/10 05:39:06;;;;;;;0.10;0.10;;;13.00;99.90;;;;;;4992103;28;20023;-77
2022/09/10 05:41:32;;;;;;;0.10;0.10;;;13.00;99.90;;;;;;4995200;28;20029;-76
2022/09/10 05:43:58;;;;;;;0.43;0.43;;;13.10;99.90;;;;;;4994846;28;20027;-76
2022/09/10 05:46:24;;;;;;;0.10;0.10;;;13.20;99.90;;;;;;4976623;28;20030;-76
2022/09/10 05:48:53;;;;;;;0.10;0.10;;;13.30;99.90;;;;;;4976456;28;20027;-76
2022/09/10 05:51:19;;;;;;;0.20;0.20;;;13.30;99.90;;;;;;4996112;28;20034;-77
2022/09/10 05:53:45;;;;;;;0.10;0.10;;;13.40;99.90;;;;;;4977455;28;20026;-76
2022/09/10 05:56:11;;;;;;;0.20;0.20;;;13.40;99.90;;;;;;4976548;28;20035;-77
2022/09/10 05:58:37;;;;;;;0.20;0.20;;;13.50;99.90;;;;;;4943254;28;20402;-76
2022/09/10 06:01:03;;;;;;;0.20;0.20;;;13.50;99.90;;;;;;4977090;28;20031;-76
2022/09/10 06:03:28;;;;;;;0.10;0.10;;;13.50;99.90;;;;;;4995762;28;20041;-76
2022/09/10 06:05:54;;;;;;;0.10;0.10;;;13.50;99.90;;;;;;4978374;28;20026;-77
2022/09/10 06:08:21;;;;;;;0.40;0.40;;;13.40;99.90;;;;;;4995749;28;20026;-76
2022/09/10 06:11:13;;;;;;;2.03;0.20;;;13.30;99.90;;;;;;4995887;28;20022;-78
2022/09/10 06:13:41;;;;;;;0.10;0.10;;;13.30;99.90;;;;;;4991702;28;20089;-77
2022/09/10 06:16:07;;;;;;;0.10;0.10;;;13.50;99.90;;;;;;4995516;28;20022;-77
2022/09/10 06:18:33;;;;;;;0.17;0.17;;;13.40;99.90;;;;;;4995641;28;20048;-75
2022/09/10 06:21:08;;;;;;;0.10;0.10;;;13.30;99.90;;;;;;4962061;28;20181;-77
2022/09/10 06:23:35;;;;;;;0.10;0.10;;;13.20;99.90;;;;;;4995507;28;20041;-77
2022/09/10 06:26:07;;;;;;;0.10;0.10;;;13.10;99.90;;;;;;4995396;28;20026;-77
2022/09/10 06:28:32;;;;;;;;;;;13.00;99.90;;;;;;4995949;28;20034;-77
2022/09/10 06:30:59;;;;;;;0.10;0.10;;;13.00;99.90;;;;;;4995415;28;19910;-77
2022/09/10 06:33:24;;;;;;;0.20;0.20;;;13.00;99.90;;;;;;4995787;28;20027;-78
2022/09/10 06:35:59;;;;;;;2.45;0.20;;;13.00;99.90;;;;;;4987888;28;20050;-77
2022/09/10 06:38:28;;;;;;;1.55;0.40;;;13.10;99.90;;;;;;4950735;28;20031;-75
2022/09/10 06:40:56;;;;;;;0.10;0.10;;;13.20;99.90;;;;;;4974665;28;20386;-75
2022/09/10 06:43:24;;;;;;;0.10;0.10;;;13.10;99.90;;;;;;4975668;28;20492;-75
2022/09/10 06:45:52;;;;;;;1.50;0.52;;;13.00;99.90;;;;;;4969992;28;20027;-75
2022/09/10 06:48:20;;;;;;;0.10;0.10;;;12.90;99.90;;;;;;4975635;28;20027;-75
2022/09/10 06:50:54;;;;;;;6.70;0.40;;;12.90;99.90;;;;;;4974553;28;20405;-75
2022/09/10 06:53:21;;;;;;;0.03;0.03;;;12.80;99.90;;;;;;4973577;28;20394;-76
2022/09/10 06:55:49;;;;;;;0.30;0.30;;;12.80;99.90;;;;;;4953113;28;20030;-77
2022/09/10 06:58:16;;;;;;;0.10;0.10;;;12.80;99.90;;;;;;4973824;28;20133;-76
2022/09/10 07:00:44;;;;;;;0.10;0.10;;;12.70;99.90;;;;;;4952622;28;20089;-76
2022/09/10 07:03:10;;;;;;;0.10;0.05;;;12.70;99.90;;;;;;4975446;28;20058;-76
2022/09/10 07:05:36;;;;;;;1.48;0.35;;;12.70;99.90;;;;;;4967642;28;20466;-77
2022/09/10 07:08:02;;;;;;;0.03;0.03;;;12.70;99.90;;;;;;4974177;28;20251;-78
2022/09/10 07:10:30;;;;;;;0.22;0.22;;;12.70;99.90;;;;;;4975291;28;20442;-79
2022/09/10 07:12:56;;;;;;;0.00;0.00;;;12.70;99.90;;;;;;4986493;28;20506;-77
2022/09/10 07:15:22;;;;;;;0.13;0.13;;;12.70;99.90;;;;;;4975022;28;20019;-76
2022/09/10 07:17:48;;;;;;;0.10;0.10;;;12.70;99.90;;;;;;4975434;28;20368;-78
2022/09/10 07:20:13;;;;;;;90.43;3.92;;;12.80;99.90;;;;;;4975178;28;20026;-77
2022/09/10 07:22:42;;;;;;;0.30;0.30;;;12.70;99.90;;;;;;4975056;28;20023;-77
2022/09/10 07:25:08;;;;;;;0.00;0.00;;;12.70;99.90;;;;;;4974961;28;20019;-78
2022/09/10 07:27:34;;;;;;;0.57;0.30;;;12.80;99.90;;;;;;4987396;28;20029;-76
2022/09/10 07:30:00;;;;;;;11.05;0.63;;;12.70;99.90;;;;;;4974478;28;20494;-76
2022/09/10 07:32:25;;;;;;;0.00;0.00;;;12.70;99.90;;;;;;4970393;28;20077;-76
2022/09/10 07:34:52;;;;;;;0.00;0.00;;;12.80;99.90;;;;;;4963197;28;20393;-76
2022/09/10 07:37:17;;;;;;;0.15;0.15;;;12.80;99.90;;;;;;4992200;28;20046;-76
2022/09/10 07:39:44;;;;;;;0.00;0.00;;;12.70;99.90;;;;;;4994168;28;20019;-75
2022/09/10 07:42:10;;;;;;;10.82;1.45;;;12.70;99.90;;;;;;4994101;28;20510;-75
2022/09/10 07:44:36;;;;;;;8.48;0.30;;;12.60;99.90;;;;;;4961219;28;20023;-76
2022/09/10 07:47:02;;;;;;;0.10;0.10;;;12.60;99.90;;;;;;4973745;28;20105;-76
2022/09/10 07:49:29;;;;;;;0.00;0.00;;;12.60;99.90;;;;;;4994168;28;20030;-76
2022/09/10 07:51:54;;;;;;;0.03;0.03;;;12.60;99.90;;;;;;4993900;28;20026;-78
2022/09/10 07:54:21;;;;;;;0.28;0.28;;;12.60;99.90;;;;;;4976537;28;20030;-77
2022/09/10 07:56:47;;;;;;;0.10;0.10;;;12.70;99.90;;;;;;4992290;28;20069;-75
2022/09/10 07:59:13;;;;;;;0.05;0.05;;;12.70;99.90;;;;;;4993843;28;20565;-76
2022/09/10 08:01:39;;;;;;;0.00;0.00;;;12.80;99.90;;;;;;4987207;28;20050;-77
2022/09/10 08:04:06;;;;;;;0.90;0.40;;;12.90;99.90;;;;;;4993318;28;20022;-76
2022/09/10 08:06:32;;;;;;;0.38;0.28;;;13.10;99.90;;;;;;4969602;28;20032;-77
2022/09/10 08:08:59;;;;;;;6.35;0.52;;;13.10;99.90;;;;;;4945760;28;20117;-77
2022/09/10 08:11:25;;;;;;;0.00;0.00;;;13.30;99.90;;;;;;4991062;28;20483;-77
2022/09/10 08:13:52;;;;;;;0.00;0.00;;;13.40;99.90;;;;;;4991137;28;20665;-77
2022/09/10 08:16:24;;;;;;;0.13;0.13;;;13.60;99.90;;;;;;4956481;28;20025;-76
2022/09/10 08:18:50;;;;;;;0.20;0.20;;;13.80;99.90;;;;;;4973951;28;20023;-76
2022/09/10 08:21:17;;;;;;;0.00;0.00;;;13.60;99.90;;;;;;4974003;28;20270;-77
2022/09/10 08:23:49;;;;;;;0.25;0.25;;;13.80;99.90;;;;;;4986836;28;20391;-75
2022/09/10 08:26:15;;;;;;;0.70;0.55;;;14.10;99.90;;;;;;4975737;28;20041;-77
2022/09/10 08:28:43;;;;;;;0.00;0.00;;;14.30;99.90;;;;;;4993144;28;20368;-76
2022/09/10 08:31:11;;;;;;;0.20;0.20;;;14.50;99.90;;;;;;4975792;28;20105;-76
2022/09/10 08:33:38;;;;;;;0.00;0.00;;;14.70;99.90;;;;;;4992717;28;20026;-76
2022/09/10 08:36:06;;;;;;;0.10;0.10;;;14.80;99.90;;;;;;4990940;28;20024;-76
2022/09/10 08:38:35;;;;;;;0.10;0.10;;;14.70;99.90;;;;;;4993069;28;20634;-76
2022/09/10 08:41:22;;;;;;;0.20;0.20;;;15.00;99.90;;;;;;4996890;28;20037;-77
2022/09/10 08:44:15;;;;;;;0.10;0.10;;;15.10;99.90;;;;;;4999288;28;20072;-78
2022/09/10 08:46:59;;;;;;;0.10;0.10;;;15.60;99.90;;;;;;4967924;28;20065;-75
2022/09/10 08:49:49;;;;;;;0.10;0.10;;;15.80;99.90;;;;;;4982696;28;20601;-77
2022/09/10 08:52:28;;;;;;;0.65;0.10;;;15.90;99.90;;;;;;4982152;28;20041;-76
2022/09/10 08:55:08;;;;;;;0.10;0.10;;;15.80;99.90;;;;;;4999445;28;20069;-82
2022/09/10 08:57:59;;;;;;;0.10;0.10;;;15.70;99.90;;;;;;4982405;28;20038;-78
2022/09/10 09:00:32;;;;;;;0.10;0.10;;;15.50;99.90;;;;;;4974776;28;20092;-82
2022/09/10 09:03:05;;;;;;;0.13;0.05;;;15.50;99.90;;;;;;4982077;28;20034;-78
2022/09/10 09:05:56;;;;;;;0.10;0.10;;;15.40;99.90;;;;;;4999122;28;20110;-81
2022/09/10 09:08:26;;;;;;;0.57;0.50;;;15.10;99.90;;;;;;4982602;28;20733;-78
2022/09/10 09:11:19;;;;;;;0.00;0.00;;;15.20;99.90;;;;;;4998652;28;20788;-77
2022/09/10 09:14:09;;;;;;;0.00;0.00;;;15.30;99.90;;;;;;4998787;28;20123;-79
2022/09/10 09:16:53;;;;;;;0.17;0.17;;;15.60;99.90;;;;;;4999038;28;20496;-78
2022/09/10 09:20:03;;;;;;;0.20;0.20;;;15.60;99.90;;;;;;5000120;28;20780;-79
2022/09/10 09:22:45;;;;;;;1.13;0.60;;;15.50;99.90;;;;;;4937481;28;20035;-77
2022/09/10 09:25:24;;;;;;;0.10;0.10;;;15.60;99.90;;;;;;4998520;28;20398;-77
2022/09/10 09:27:54;;;;;;;6.55;0.20;;;15.60;99.90;;;;;;4999321;28;20038;-77
2022/09/10 09:30:26;;;;;;;0.20;0.20;;;15.60;99.90;;;;;;4999061;28;20038;-81
2022/09/10 09:32:56;;;;;;;0.30;0.30;;;15.40;99.90;;;;;;4993567;28;20030;-78
2022/09/10 09:35:32;;;;;;;0.20;0.20;;;15.30;99.90;;;;;;4981349;28;20061;-79
2022/09/10 09:38:10;;;;;;;0.10;0.10;;;15.10;99.90;;;;;;4997769;28;20054;-79
2022/09/10 09:40:47;;;;;;;1.20;0.20;;;15.20;99.90;;;;;;5000119;28;20037;-76
2022/09/10 09:43:15;;;;;;;0.32;0.22;;;15.30;99.90;;;;;;4965515;28;20042;-81
2022/09/10 09:45:42;;;;;;;0.20;0.20;;;15.10;99.90;;;;;;4999390;28;20038;-77
2022/09/10 09:48:12;;;;;;;0.28;0.25;;;15.00;99.90;;;;;;4998489;28;20042;-79
2022/09/10 09:50:41;;;;;;;0.10;0.10;;;14.60;99.90;;;;;;4998629;28;20022;-75
2022/09/10 09:53:14;;;;;;;0.20;0.20;;;14.50;99.90;;;;;;5000148;28;20030;-76
2022/09/10 09:55:45;;;;;;;0.10;0.10;;;14.40;99.90;;;;;;4997115;28;20482;-76
2022/09/10 09:58:20;;;;;;;;;;;14.40;99.90;;;;;;4980473;28;20125;-79
2022/09/10 10:00:51;;;;;;;0.10;0.10;;;14.50;99.90;;;;;;4980829;28;19916;-78
2022/09/10 10:03:47;;;;;;;0.25;0.25;;;14.40;99.90;;;;;;4997430;28;20109;-78
2022/09/10 10:06:14;;;;;;;0.20;0.20;;;14.40;99.90;;;;;;4972603;28;20048;-77
2022/09/10 10:08:51;;;;;;;0.10;0.10;;;14.50;99.90;;;;;;4998323;28;20506;-78
2022/09/10 10:11:20;;;;;;;0.10;0.10;;;14.40;99.90;;;;;;4998408;28;20034;-76
2022/09/10 10:13:50;;;;;;;1.52;0.17;;;14.10;99.90;;;;;;4999260;28;20030;-79
2022/09/10 10:16:34;;;;;;;0.10;0.10;;;14.30;99.90;;;;;;4999745;28;20080;-77
2022/09/10 10:19:01;;;;;;;0.20;0.20;;;14.60;99.90;;;;;;4981998;28;20109;-80
2022/09/10 10:21:35;;;;;;;1.38;0.20;;;14.80;99.90;;;;;;4982479;28;20029;-77
2022/09/10 10:24:02;;;;;;;0.10;0.10;;;14.90;99.90;;;;;;4980949;28;20033;-77
2022/09/10 10:26:33;;;;;;;0.13;0.13;;;14.90;99.90;;;;;;5002397;28;20440;-79
2022/09/10 10:29:19;;;;;;;2.40;0.40;;;14.70;99.90;;;;;;5002584;28;20034;-76
2022/09/10 10:31:47;;;;;;;0.20;0.20;;;14.70;99.90;;;;;;4969508;28;20038;-77
2022/09/10 10:34:15;;;;;;;0.55;0.47;;;14.80;99.90;;;;;;4985407;28;20552;-78
2022/09/10 10:36:52;;;;;;;0.10;0.10;;;14.80;99.90;;;;;;4969466;28;20041;-79
2022/09/10 10:39:25;;;;;;;0.22;0.20;;;15.10;99.90;;;;;;5000616;28;20759;-78
2022/09/10 10:42:23;;;;;;;0.20;0.20;;;15.40;99.90;;;;;;5002055;28;20038;-77
2022/09/10 10:45:01;;;;;;;0.10;0.10;;;15.40;99.90;;;;;;4977001;28;20034;-77
2022/09/10 10:48:25;;;;;;;0.10;0.10;;;15.30;99.90;;;;;;5002626;28;20113;-79
2022/09/10 10:50:57;;;;;;;0.63;0.63;;;15.50;99.90;;;;;;4885165;29;20041;-78
2022/09/10 10:53:35;;;;;;;1.40;0.47;;;15.30;99.90;;;;;;4982422;28;21415;-78
2022/09/10 10:56:19;;;;;;;0.10;0.10;;;15.30;99.90;;;;;;4996705;28;20095;-79
2022/09/10 10:59:04;;;;;;;0.20;0.20;;;15.40;99.90;;;;;;5002281;28;20029;-80
2022/09/10 11:01:38;;;;;;;0.10;0.10;;;15.60;99.90;;;;;;5002340;28;20717;-80
2022/09/10 11:04:26;;;;;;;0.20;0.20;;;15.90;99.90;;;;;;5002441;28;20030;-77
2022/09/10 11:07:10;;;;;;;2.75;2.20;;;16.00;99.90;;;;;;5002513;28;20030;-75
2022/09/10 11:09:41;;;;;;;0.10;0.10;;;15.90;99.90;;;;;;4968407;28;20532;-79
2022/09/10 11:12:13;;;;;;;;;;;15.80;99.90;;;;;;5001981;28;20048;-77
2022/09/10 11:14:48;;;;;;;0.65;0.22;;;16.00;99.90;;;;;;4999290;28;19941;-80
2022/09/10 11:17:33;;;;;;;0.15;0.15;;;16.30;99.90;;;;;;5002514;28;20113;-77
2022/09/10 11:20:13;;;;;;;0.10;0.10;;;16.00;99.90;;;;;;5002269;28;20022;-77
2022/09/10 11:22:47;;;;;;;0.10;0.10;;;16.10;99.90;;;;;;5002765;28;20893;-78
2022/09/10 11:25:45;;;;;;;0.17;0.15;;;16.30;99.90;;;;;;4984064;28;20610;-76
2022/09/10 11:28:25;;;;;;;0.10;0.10;;;16.30;99.90;;;;;;5001543;28;20613;-82
2022/09/10 11:31:10;;;;;;;0.20;0.20;;;16.60;99.90;;;;;;4999323;28;20636;-76
2022/09/10 11:34:05;;;;;;;0.10;0.10;;;16.70;99.90;;;;;;4984231;28;20030;-76
2022/09/10 11:36:53;;;;;;;0.75;0.30;;;17.20;99.90;;;;;;4999637;28;20048;-78
2022/09/10 11:39:30;;;;;;;0.10;0.10;;;17.10;99.90;;;;;;4983920;28;20457;-80
2022/09/10 11:41:57;;;;;;;1.63;0.28;;;17.20;99.90;;;;;;5002749;28;20018;-77
2022/09/10 11:44:39;;;;;;;0.10;0.10;;;17.00;99.90;;;;;;5001437;28;20037;-79
2022/09/10 11:47:05;;;;;;;0.10;0.10;;;16.90;99.90;;;;;;5000312;28;20049;-75
2022/09/10 11:50:05;;;;;;;0.20;0.20;;;16.60;99.90;;;;;;4984118;28;20482;-76
2022/09/10 11:52:33;;;;;;;0.38;0.38;;;16.20;99.90;;;;;;4968837;28;20038;-79
2022/09/10 11:55:02;;;;;;;0.63;0.20;;;16.10;99.90;;;;;;4983515;28;20034;-78
2022/09/10 11:57:48;;;;;;;0.10;0.10;;;16.00;99.90;;;;;;4993833;28;20097;-75
2022/09/10 12:00:16;;;;;;;0.13;0.13;;;16.40;99.90;;;;;;5001634;28;20029;-75
2022/09/10 12:02:51;;;;;;;0.40;0.40;;;16.80;99.90;;;;;;4984271;28;20117;-76
2022/09/10 12:05:25;;;;;;;0.57;0.57;;;16.40;99.90;;;;;;4999883;28;20030;-75
2022/09/10 12:08:33;;;;;;;0.40;0.40;;;16.70;99.90;;;;;;5000354;28;20026;-75
2022/09/10 12:11:17;;;;;;;0.10;0.10;;;17.10;99.90;;;;;;4983782;28;20037;-76
2022/09/10 12:13:45;;;;;;;0.10;0.10;;;17.40;99.90;;;;;;4969175;28;20115;-76
2022/09/10 12:16:31;;;;;;;0.10;0.10;;;17.80;99.90;;;;;;5000851;28;20457;-76
2022/09/10 12:18:58;;;;;;;0.10;0.10;;;18.10;99.90;;;;;;4967383;28;20065;-74
2022/09/10 12:22:14;;;;;;;1.55;0.20;;;18.30;99.90;;;;;;4983441;28;20038;-79
2022/09/10 12:24:48;;;;;;;0.17;0.17;;;18.30;99.90;;;;;;4986057;28;20052;-77
2022/09/10 12:27:18;;;;;;;0.10;0.10;;;17.80;99.90;;;;;;5002426;28;20682;-76
2022/09/10 12:29:43;;;;;;;0.20;0.20;;;17.80;99.90;;;;;;5001157;28;20033;-76
2022/09/10 12:32:14;;;;;;;0.10;0.10;;;17.80;99.90;;;;;;5001920;28;20072;-76
2022/09/10 12:34:40;;;;;;;0.10;0.10;;;18.10;99.90;;;;;;5000806;28;20040;-79
2022/09/10 12:37:22;;;;;;;0.68;0.30;;;18.40;99.90;;;;;;4967686;28;20281;-79
2022/09/10 12:39:48;;;;;;;0.00;0.00;;;18.50;99.90;;;;;;5000699;28;20159;-77
2022/09/10 12:42:29;;;;;;;0.13;0.13;;;18.20;99.90;;;;;;4998343;28;20038;-77
2022/09/10 12:44:56;;;;;;;0.17;0.17;;;18.60;99.90;;;;;;5001742;28;20045;-78
2022/09/10 12:47:38;;;;;;;2.92;0.13;;;18.50;99.90;;;;;;4984044;28;20532;-76
2022/09/10 12:50:17;;;;;;;0.52;0.28;;;18.50;99.90;;;;;;5000321;28;20033;-76
2022/09/10 12:52:52;;;;;;;0.10;0.10;;;18.80;99.90;;;;;;5001737;28;20037;-77
2022/09/10 12:55:35;;;;;;;0.00;0.00;;;19.00;99.90;;;;;;4981981;28;20100;-78
2022/09/10 12:58:30;;;;;;;0.10;0.10;;;19.30;99.90;;;;;;4998102;28;20764;-78
2022/09/10 13:00:56;;;;;;;1.33;0.43;;;18.80;99.90;;;;;;4982363;28;20038;-76
2022/09/10 13:03:28;;;;;;;0.10;0.10;;;18.50;99.90;;;;;;4982702;28;20129;-76
2022/09/10 13:06:00;;;;;;;0.10;0.10;;;18.40;99.90;;;;;;4999871;28;20033;-78
2022/09/10 13:08:41;;;;;;;0.00;0.00;;;18.40;99.90;;;;;;4988611;28;20142;-79
2022/09/10 13:11:23;;;;;;;0.10;0.10;;;18.10;99.90;;;;;;4998129;28;20033;-76